createdAt,value
2022-09-22T00:00:33.973Z,11.50
2022-09-22T00:03:04.285Z,13.07
2022-09-22T00:05:34.494Z,13.18
2022-09-22T00:08:04.951Z,12.80
2022-09-22T00:10:35.141Z,13.23
2022-09-22T00:13:06.330Z,13.90
2022-09-22T00:15:36.940Z,12.77
2022-09-22T00:18:07.393Z,12.85
2022-09-22T00:20:40.765Z,13.93
2022-09-22T00:23:11.114Z,14.63
2022-09-22T00:25:44.778Z,16.48
2022-09-22T00:28:15.195Z,15.23
2022-09-22T00:30:45.820Z,15.63
2022-09-22T00:33:16.243Z,18.75
2022-09-22T00:35:46.500Z,17.58
2022-09-22T00:38:16.846Z,16.48
2022-09-22T00:40:47.223Z,16.67
2022-09-22T00:43:24.499Z,16.95
2022-09-22T00:46:02.622Z,17.33
2022-09-22T00:48:37.415Z,27.05
2022-09-22T00:51:12.120Z,27.13
2022-09-22T00:53:42.753Z,19.58
2022-09-22T00:56:20.486Z,24.30
2022-09-22T00:58:56.319Z,22.10
2022-09-22T01:01:26.694Z,19.67
2022-09-22T01:03:59.016Z,18.35
2022-09-22T01:06:31.327Z,16.48
2022-09-22T01:09:03.900Z,15.95
2022-09-22T01:11:34.978Z,15.25
2022-09-22T01:14:27.866Z,14.52
2022-09-22T01:17:25.798Z,13.65
2022-09-22T01:20:25.811Z,14.85
2022-09-22T01:26:16.756Z,18.83
2022-09-22T01:29:18.356Z,16.25
2022-09-22T01:32:08.122Z,18.35
2022-09-22T01:35:02.961Z,19.58
2022-09-22T01:37:49.271Z,22.98
2022-09-22T01:40:33.855Z,19.90
2022-09-22T01:43:30.956Z,23.33
2022-09-22T01:46:05.805Z,20.83
2022-09-22T01:48:38.232Z,20.45
2022-09-22T01:51:31.358Z,21.27
2022-09-22T01:54:06.816Z,20.50
2022-09-22T01:56:39.311Z,23.02
2022-09-22T01:59:12.044Z,22.65
2022-09-22T02:01:50.477Z,22.90
2022-09-22T02:04:32.320Z,19.95
2022-09-22T02:07:08.444Z,21.83
2022-09-22T02:09:41.226Z,23.00
2022-09-22T02:12:11.656Z,22.02
2022-09-22T02:14:42.074Z,20.67
2022-09-22T02:17:12.539Z,16.05
2022-09-22T02:19:44.632Z,17.35
2022-09-22T02:22:15.350Z,17.13
2022-09-22T02:24:47.738Z,17.98
2022-09-22T02:27:29.110Z,15.98
2022-09-22T02:30:10.205Z,17.35
2022-09-22T02:32:43.353Z,14.68
2022-09-22T02:35:13.769Z,13.43
2022-09-22T02:38:04.917Z,15.98
2022-09-22T02:41:01.245Z,17.23
2022-09-22T02:43:52.176Z,16.17
2022-09-22T02:46:42.802Z,16.90
2022-09-22T02:49:17.265Z,13.23
2022-09-22T02:51:50.795Z,13.65
2022-09-22T02:54:21.059Z,13.15
2022-09-22T02:56:51.639Z,12.73
2022-09-22T02:59:21.883Z,12.75
2022-09-22T03:01:52.559Z,12.82
2022-09-22T03:04:23.048Z,13.77
2022-09-22T03:06:53.518Z,15.80
2022-09-22T03:09:23.862Z,18.05
2022-09-22T03:11:54.195Z,16.92
2022-09-22T03:14:24.588Z,14.85
2022-09-22T03:16:56.262Z,13.45
2022-09-22T03:19:26.709Z,13.45
2022-09-22T03:21:56.995Z,13.93
2022-09-22T03:24:27.333Z,13.48
2022-09-22T03:26:57.630Z,13.60
2022-09-22T03:29:28.011Z,12.48
2022-09-22T03:31:58.290Z,10.82
2022-09-22T03:34:28.559Z,9.88
2022-09-22T03:36:58.379Z,8.88
2022-09-22T03:41:57.304Z,9.10
2022-09-22T03:44:28.209Z,8.93
2022-09-22T03:46:57.934Z,10.50
2022-09-22T03:49:28.060Z,10.63
2022-09-22T03:51:58.116Z,10.00
2022-09-22T03:54:27.998Z,11.80
2022-09-22T03:56:57.853Z,11.50
2022-09-22T03:59:28.041Z,10.90
2022-09-22T04:01:58.494Z,10.95
2022-09-22T04:04:28.379Z,11.35
2022-09-22T04:06:58.219Z,11.70
2022-09-22T04:09:28.120Z,12.45
2022-09-22T04:11:58.448Z,10.60
2022-09-22T04:14:28.396Z,10.68
2022-09-22T04:16:58.461Z,8.43
2022-09-22T04:19:28.468Z,7.97
2022-09-22T04:21:58.629Z,8.48
2022-09-22T04:24:28.772Z,8.35
2022-09-22T04:29:49.418Z,7.68
2022-09-22T04:32:20.403Z,8.05
2022-09-22T04:34:50.577Z,6.50
2022-09-22T04:37:20.468Z,7.25
2022-09-22T04:39:50.736Z,7.18
2022-09-22T04:42:21.463Z,7.50
2022-09-22T04:44:51.367Z,7.03
2022-09-22T04:47:22.203Z,6.65
2022-09-22T04:49:52.027Z,7.35
2022-09-22T04:52:21.992Z,6.38
2022-09-22T04:54:51.781Z,6.43
2022-09-22T04:57:22.023Z,5.47
2022-09-22T04:59:53.803Z,6.28
2022-09-22T05:02:23.768Z,5.90
2022-09-22T05:04:53.612Z,5.72
2022-09-22T05:07:23.302Z,4.43
2022-09-22T05:09:53.121Z,5.32
2022-09-22T05:12:22.959Z,4.45
2022-09-22T05:14:52.788Z,4.72
2022-09-22T05:17:23.400Z,4.97
2022-09-22T05:19:57.402Z,4.88
2022-09-22T05:22:27.426Z,5.57
2022-09-22T05:24:57.725Z,6.03
2022-09-22T05:27:28.248Z,4.78
2022-09-22T05:29:58.218Z,4.80
2022-09-22T05:32:28.034Z,4.65
2022-09-22T05:34:57.950Z,4.13
2022-09-22T05:37:27.724Z,5.20
2022-09-22T05:39:57.601Z,5.72
2022-09-22T05:42:27.460Z,4.70
2022-09-22T05:44:57.306Z,4.68
2022-09-22T05:47:27.105Z,4.95
2022-09-22T05:49:57.142Z,5.32
2022-09-22T05:52:26.901Z,4.43
2022-09-22T05:54:56.785Z,5.07
2022-09-22T05:57:29.289Z,5.38
2022-09-22T05:59:59.111Z,6.40
2022-09-22T06:02:29.151Z,6.45
2022-09-22T06:05:00.156Z,5.18
2022-09-22T06:07:30.256Z,4.97
2022-09-22T06:10:00.129Z,5.60
2022-09-22T06:12:30.934Z,6.32
2022-09-22T06:15:00.740Z,6.65
2022-09-22T06:17:30.454Z,5.85
2022-09-22T06:20:02.541Z,5.93
2022-09-22T06:22:32.346Z,6.25
2022-09-22T06:25:02.200Z,6.95
2022-09-22T06:27:32.063Z,5.85
2022-09-22T06:30:01.849Z,7.22
2022-09-22T06:32:32.790Z,7.70
2022-09-22T06:35:04.473Z,7.30
2022-09-22T06:37:34.369Z,6.78
2022-09-22T06:40:04.532Z,6.00
2022-09-22T06:42:34.366Z,6.63
2022-09-22T06:45:06.140Z,5.70
2022-09-22T06:47:35.976Z,5.00
2022-09-22T06:50:07.291Z,4.85
2022-09-22T06:52:40.202Z,4.53
2022-09-22T06:55:13.027Z,4.72
2022-09-22T06:57:43.001Z,5.40
2022-09-22T07:00:13.521Z,5.60
2022-09-22T07:02:43.314Z,4.80
2022-09-22T07:05:13.574Z,5.22
2022-09-22T07:07:43.295Z,6.05
2022-09-22T07:10:13.192Z,5.43
2022-09-22T07:12:43.057Z,5.55
2022-09-22T07:15:14.018Z,6.22
2022-09-22T07:17:43.980Z,6.65
2022-09-22T07:20:14.442Z,5.90
2022-09-22T07:22:44.168Z,5.78
2022-09-22T07:25:16.001Z,6.05
2022-09-22T07:27:46.256Z,4.80
2022-09-22T07:30:16.594Z,6.78
2022-09-22T07:32:46.395Z,6.65
2022-09-22T07:35:16.367Z,6.22
2022-09-22T07:37:48.077Z,5.70
2022-09-22T07:40:18.013Z,5.20
2022-09-22T07:42:51.873Z,5.78
2022-09-22T07:45:24.531Z,5.30
2022-09-22T07:48:10.591Z,5.65
2022-09-22T07:50:40.430Z,5.60
2022-09-22T07:53:10.304Z,5.00
2022-09-22T07:55:40.277Z,5.20
2022-09-22T07:58:17.283Z,4.78
2022-09-22T08:00:47.736Z,5.72
2022-09-22T08:03:17.717Z,5.55
2022-09-22T08:05:48.751Z,6.00
2022-09-22T08:08:18.422Z,5.25
2022-09-22T08:10:48.280Z,4.50
2022-09-22T08:13:18.421Z,4.75
2022-09-22T08:15:49.273Z,4.25
2022-09-22T08:18:21.008Z,4.28
2022-09-22T08:20:51.768Z,4.90
2022-09-22T08:23:23.261Z,5.45
2022-09-22T08:25:53.677Z,4.97
2022-09-22T08:28:24.253Z,4.68
2022-09-22T08:30:54.665Z,5.22
2022-09-22T08:33:26.445Z,6.20
2022-09-22T08:36:01.421Z,5.72
2022-09-22T08:38:33.193Z,5.07
2022-09-22T08:41:39.961Z,4.63
2022-09-22T08:44:25.087Z,5.18
2022-09-22T08:47:01.521Z,10.63
2022-09-22T08:50:04.794Z,15.38
2022-09-22T08:52:50.462Z,12.55
2022-09-22T08:55:25.568Z,12.77
2022-09-22T08:58:23.768Z,11.82
2022-09-22T09:01:06.707Z,10.93
2022-09-22T09:03:59.915Z,9.95
2022-09-22T09:07:00.190Z,10.07
2022-09-22T09:10:07.030Z,9.75
2022-09-22T09:13:17.157Z,10.57
2022-09-22T09:16:13.228Z,10.32
2022-09-22T09:18:53.673Z,10.75
2022-09-22T09:21:25.918Z,8.65
2022-09-22T09:26:53.064Z,8.63
2022-09-22T09:29:29.513Z,9.77
2022-09-22T09:32:01.820Z,7.68
2022-09-22T09:34:32.723Z,7.20
2022-09-22T09:37:16.345Z,6.97
2022-09-22T09:39:48.523Z,11.60
2022-09-22T09:42:31.291Z,7.68
2022-09-22T09:45:04.937Z,7.38
2022-09-22T09:48:14.108Z,7.90
2022-09-22T09:50:44.422Z,8.02
2022-09-22T09:53:41.046Z,10.32
2022-09-22T09:56:31.242Z,8.25
2022-09-22T09:59:19.244Z,8.18
2022-09-22T10:01:53.307Z,8.30
2022-09-22T10:04:40.912Z,8.93
2022-09-22T10:07:18.909Z,8.07
2022-09-22T10:09:52.428Z,8.48
2022-09-22T10:12:38.081Z,8.50
2022-09-22T10:15:26.929Z,8.93
2022-09-22T10:17:57.429Z,10.05
2022-09-22T10:20:36.045Z,8.95
2022-09-22T10:23:24.499Z,9.30
2022-09-22T10:25:55.860Z,8.25
2022-09-22T10:28:28.493Z,8.23
2022-09-22T10:31:05.443Z,9.00
2022-09-22T10:33:43.077Z,9.23
2022-09-22T10:36:14.816Z,9.25
2022-09-22T10:38:47.190Z,8.80
2022-09-22T10:41:28.759Z,8.82
2022-09-22T10:44:37.863Z,10.27
2022-09-22T10:47:28.308Z,8.88
2022-09-22T10:50:33.972Z,8.95
2022-09-22T10:53:33.939Z,10.60
2022-09-22T10:56:25.993Z,10.23
2022-09-22T10:59:13.679Z,8.15
2022-09-22T11:02:23.082Z,5.57
2022-09-22T11:05:43.198Z,4.30
2022-09-22T11:08:33.592Z,3.60
2022-09-22T11:11:43.548Z,4.55
2022-09-22T11:14:44.205Z,3.80
2022-09-22T11:17:45.543Z,3.72
2022-09-22T11:20:34.520Z,4.57
2022-09-22T11:23:24.918Z,5.33
2022-09-22T11:26:14.562Z,3.45
2022-09-22T11:31:56.670Z,5.63
2022-09-22T11:34:55.896Z,10.88
2022-09-22T11:37:48.546Z,11.02
2022-09-22T11:40:46.152Z,8.90
2022-09-22T11:43:38.666Z,6.72
2022-09-22T11:46:45.517Z,8.05
2022-09-22T11:49:46.849Z,6.78
2022-09-22T11:52:36.912Z,7.30
2022-09-22T11:55:39.942Z,8.60
2022-09-22T11:58:19.340Z,7.85
2022-09-22T12:01:13.153Z,10.63
2022-09-22T12:03:56.964Z,10.02
2022-09-22T12:06:34.677Z,13.73
2022-09-22T12:09:13.745Z,14.27
2022-09-22T12:11:45.209Z,14.52
2022-09-22T12:14:17.788Z,13.55
2022-09-22T12:17:08.068Z,11.05
2022-09-22T12:20:00.659Z,12.40
2022-09-22T12:22:48.529Z,12.48
2022-09-22T12:25:47.981Z,13.25
2022-09-22T12:28:23.392Z,10.82
2022-09-22T12:31:14.819Z,7.95
2022-09-22T12:33:55.019Z,8.98
2022-09-22T12:36:41.716Z,9.90
2022-09-22T12:39:20.357Z,11.45
2022-09-22T12:42:02.634Z,12.98
2022-09-22T12:44:57.073Z,18.98
2022-09-22T12:47:40.622Z,14.63
2022-09-22T12:50:36.287Z,12.48
2022-09-22T12:53:20.444Z,12.18
2022-09-22T12:55:52.869Z,13.48
2022-09-22T12:58:43.065Z,13.57
2022-09-22T13:01:35.095Z,14.18
2022-09-22T13:04:16.566Z,16.13
2022-09-22T13:07:01.369Z,17.75
2022-09-22T13:09:32.645Z,17.63
2022-09-22T13:12:25.528Z,15.98
2022-09-22T13:15:16.969Z,18.45
2022-09-22T13:17:50.203Z,18.70
2022-09-22T13:20:34.791Z,19.60
2022-09-22T13:23:14.039Z,20.08
2022-09-22T13:25:45.463Z,19.58
2022-09-22T13:28:23.322Z,20.67
2022-09-22T13:31:06.408Z,16.92
2022-09-22T13:33:38.909Z,17.27
2022-09-22T13:36:15.941Z,17.30
2022-09-22T13:38:53.504Z,17.45
2022-09-22T13:41:27.990Z,17.83
2022-09-22T13:44:03.698Z,17.92
2022-09-22T13:46:44.883Z,17.15
2022-09-22T13:49:34.271Z,21.30
2022-09-22T13:52:09.542Z,24.10
2022-09-22T13:54:41.387Z,22.08
2022-09-22T13:57:26.761Z,21.05
2022-09-22T13:59:59.821Z,20.42
2022-09-22T14:02:32.255Z,21.83
2022-09-22T14:05:08.048Z,20.45
2022-09-22T14:08:00.959Z,18.13
2022-09-22T14:10:37.191Z,17.15
2022-09-22T14:13:07.438Z,16.35
2022-09-22T14:15:46.129Z,17.50
2022-09-22T14:18:23.175Z,17.65
2022-09-22T14:20:55.053Z,20.17
2022-09-22T14:23:34.878Z,20.13
2022-09-22T14:28:38.906Z,19.20
2022-09-22T14:31:20.138Z,18.02
2022-09-22T14:33:51.896Z,16.10
2022-09-22T14:36:27.054Z,17.95
2022-09-22T14:39:09.583Z,16.58
2022-09-22T14:41:43.386Z,17.13
2022-09-22T14:44:47.671Z,15.35
2022-09-22T14:47:27.992Z,15.40
2022-09-22T14:50:11.420Z,14.90
2022-09-22T14:52:55.538Z,12.75
2022-09-22T14:55:47.957Z,14.18
2022-09-22T14:58:26.330Z,15.88
2022-09-22T15:01:17.541Z,15.20
2022-09-22T15:04:03.370Z,15.65
2022-09-22T15:06:39.085Z,14.50
2022-09-22T15:09:25.579Z,14.20
2022-09-22T15:11:58.917Z,14.63
2022-09-22T15:14:46.703Z,15.38
2022-09-22T15:17:48.412Z,15.20
2022-09-22T15:20:21.095Z,13.93
2022-09-22T15:22:52.306Z,14.65
2022-09-22T15:25:24.104Z,15.52
2022-09-22T15:27:55.558Z,14.48
2022-09-22T15:30:27.541Z,16.08
2022-09-22T15:32:58.213Z,16.63
2022-09-22T15:35:29.733Z,15.68
2022-09-22T15:38:00.469Z,16.95
2022-09-22T15:40:31.011Z,16.83
2022-09-22T15:43:13.465Z,14.95
2022-09-22T15:45:51.649Z,17.77
2022-09-22T15:48:28.461Z,15.30
2022-09-22T15:51:02.549Z,16.23
2022-09-22T15:53:33.585Z,15.90
2022-09-22T15:56:08.702Z,15.30
2022-09-22T15:58:43.148Z,14.18
2022-09-22T16:01:13.681Z,13.85
2022-09-22T16:03:45.570Z,14.55
2022-09-22T16:06:19.317Z,15.65
2022-09-22T16:08:53.561Z,15.15
2022-09-22T16:11:31.635Z,13.57
2022-09-22T16:14:05.462Z,14.73
2022-09-22T16:16:38.464Z,12.98
2022-09-22T16:19:12.013Z,12.82
2022-09-22T16:21:52.937Z,13.13
2022-09-22T16:24:24.528Z,12.48
2022-09-22T16:26:57.480Z,14.85
2022-09-22T16:29:27.863Z,13.18
2022-09-22T16:32:03.263Z,13.80
2022-09-22T16:34:33.623Z,15.25
2022-09-22T16:37:05.468Z,14.63
2022-09-22T16:39:36.791Z,14.38
2022-09-22T16:42:07.576Z,16.27
2022-09-22T16:44:38.172Z,14.43
2022-09-22T16:47:09.951Z,14.65
2022-09-22T16:49:47.414Z,14.98
2022-09-22T16:52:18.909Z,13.63
2022-09-22T16:54:50.053Z,12.88
2022-09-22T16:57:20.997Z,12.98
2022-09-22T16:59:52.358Z,12.73
2022-09-22T17:02:24.084Z,14.95
2022-09-22T17:04:56.759Z,12.40
2022-09-22T17:07:28.080Z,12.20
2022-09-22T17:09:59.262Z,13.63
2022-09-22T17:12:32.309Z,13.25
2022-09-22T17:15:02.494Z,13.15
2022-09-22T17:17:35.137Z,11.93
2022-09-22T17:20:06.483Z,13.88
2022-09-22T17:22:37.305Z,13.20
2022-09-22T17:25:08.002Z,13.02
2022-09-22T17:27:39.273Z,12.77
2022-09-22T17:30:10.860Z,12.38
2022-09-22T17:32:41.650Z,13.82
2022-09-22T17:35:13.740Z,12.85
2022-09-22T17:37:45.770Z,11.50
2022-09-22T17:40:16.516Z,11.52
2022-09-22T17:42:47.328Z,12.05
2022-09-22T17:45:18.073Z,11.70
2022-09-22T17:48:07.625Z,12.07
2022-09-22T17:50:47.640Z,12.52
2022-09-22T17:55:58.849Z,13.23
2022-09-22T17:58:29.367Z,13.80
2022-09-22T18:00:59.603Z,11.05
2022-09-22T18:03:29.974Z,12.32
2022-09-22T18:06:00.404Z,11.80
2022-09-22T18:08:30.747Z,11.82
2022-09-22T18:11:03.190Z,9.93
2022-09-22T18:13:37.304Z,13.73
2022-09-22T18:16:21.931Z,11.45
2022-09-22T18:18:52.428Z,10.82
2022-09-22T18:21:22.742Z,13.95
2022-09-22T18:23:54.212Z,15.68
2022-09-22T18:26:24.373Z,14.02
2022-09-22T18:28:56.042Z,15.48
2022-09-22T18:31:29.242Z,16.90
2022-09-22T18:34:00.342Z,14.98
2022-09-22T18:36:30.559Z,16.98
2022-09-22T18:39:00.760Z,14.88
2022-09-22T18:41:31.596Z,17.33
2022-09-22T18:44:02.823Z,16.40
2022-09-22T18:46:53.181Z,16.85
2022-09-22T18:49:23.833Z,16.58
2022-09-22T18:51:55.333Z,16.50
2022-09-22T18:54:25.548Z,14.60
2022-09-22T18:56:56.410Z,15.55
2022-09-22T18:59:29.102Z,14.00
2022-09-22T19:01:59.633Z,13.98
2022-09-22T19:04:30.080Z,14.38
2022-09-22T19:07:12.207Z,15.27
2022-09-22T19:09:43.226Z,13.88
2022-09-22T19:12:14.315Z,14.50
2022-09-22T19:14:44.529Z,13.10
2022-09-22T19:17:15.367Z,11.32
2022-09-22T19:19:46.416Z,13.20
2022-09-22T19:22:16.621Z,11.60
2022-09-22T19:24:48.206Z,12.32
2022-09-22T19:27:21.264Z,12.57
2022-09-22T19:29:52.757Z,14.55
2022-09-22T19:32:22.969Z,12.27
2022-09-22T19:34:55.782Z,13.77
2022-09-22T19:37:26.892Z,15.25
2022-09-22T19:39:57.727Z,12.73
2022-09-22T19:42:28.839Z,12.43
2022-09-22T19:44:59.324Z,13.25
2022-09-22T19:47:29.594Z,13.68
2022-09-22T19:50:00.920Z,13.85
2022-09-22T19:52:31.221Z,14.38
2022-09-22T19:55:01.629Z,14.52
2022-09-22T19:57:32.928Z,13.50
2022-09-22T20:00:03.383Z,13.73
2022-09-22T20:02:33.591Z,15.13
2022-09-22T20:05:03.913Z,13.50
2022-09-22T20:07:34.514Z,14.90
2022-09-22T20:10:05.028Z,13.63
2022-09-22T20:12:35.284Z,12.98
2022-09-22T20:15:05.654Z,11.85
2022-09-22T20:17:35.889Z,13.02
2022-09-22T20:20:06.529Z,11.88
2022-09-22T20:22:38.839Z,12.55
2022-09-22T20:25:09.660Z,12.82
2022-09-22T20:27:40.136Z,13.77
2022-09-22T20:30:11.286Z,15.68
2022-09-22T20:32:42.469Z,11.85
2022-09-22T20:35:17.277Z,12.75
2022-09-22T20:37:47.902Z,13.20
2022-09-22T20:40:23.302Z,12.50
2022-09-22T20:42:56.447Z,12.38
2022-09-22T20:45:27.345Z,11.07
2022-09-22T20:47:58.256Z,11.80
2022-09-22T20:50:28.706Z,11.93
2022-09-22T20:52:58.980Z,14.43
2022-09-22T20:55:29.392Z,12.60
2022-09-22T20:58:00.085Z,13.35
2022-09-22T21:00:30.389Z,11.95
2022-09-22T21:03:03.508Z,11.45
2022-09-22T21:05:33.748Z,12.38
2022-09-22T21:08:19.749Z,13.07
2022-09-22T21:10:49.965Z,13.23
2022-09-22T21:13:20.250Z,14.05
2022-09-22T21:15:50.699Z,14.15
2022-09-22T21:18:21.020Z,14.68
2022-09-22T21:20:51.379Z,12.90
2022-09-22T21:23:22.632Z,15.95
2022-09-22T21:26:04.180Z,14.75
2022-09-22T21:28:36.133Z,14.60
2022-09-22T21:31:08.778Z,15.27
2022-09-22T21:33:39.984Z,14.40
2022-09-22T21:36:16.721Z,15.82
2022-09-22T21:38:50.518Z,15.98
2022-09-22T21:41:23.351Z,14.88
2022-09-22T21:43:54.351Z,14.95
2022-09-22T21:46:27.324Z,15.98
2022-09-22T21:49:01.503Z,16.52
2022-09-22T21:51:38.589Z,14.65
2022-09-22T21:54:09.520Z,14.50
2022-09-22T21:56:39.814Z,14.43
2022-09-22T21:59:10.714Z,15.52
2022-09-22T22:01:42.804Z,14.27
2022-09-22T22:04:16.567Z,15.10
2022-09-22T22:06:48.069Z,14.88
2022-09-22T22:09:25.485Z,14.35
2022-09-22T22:12:01.394Z,14.18
2022-09-22T22:14:35.595Z,14.85
2022-09-22T22:17:07.690Z,14.43
2022-09-22T22:19:38.067Z,15.30
2022-09-22T22:22:08.620Z,15.25
2022-09-22T22:24:43.316Z,15.50
2022-09-22T22:27:15.646Z,15.45
2022-09-22T22:29:46.058Z,15.90
2022-09-22T22:32:16.365Z,16.35
2022-09-22T22:34:46.622Z,16.38
2022-09-22T22:37:17.140Z,15.88
2022-09-22T22:39:47.480Z,15.15
2022-09-22T22:42:17.733Z,16.20
2022-09-22T22:44:48.056Z,14.85
2022-09-22T22:47:19.355Z,15.57
2022-09-22T22:49:50.328Z,15.38
2022-09-22T22:52:20.598Z,16.15
2022-09-22T22:54:50.849Z,14.70
2022-09-22T22:57:21.327Z,15.77
2022-09-22T22:59:51.643Z,19.15
2022-09-22T23:02:21.891Z,15.82
2022-09-22T23:04:52.144Z,15.75
2022-09-22T23:07:22.587Z,17.52
2022-09-22T23:10:08.059Z,16.67
2022-09-22T23:12:43.139Z,17.13
2022-09-22T23:15:13.577Z,17.65
2022-09-22T23:17:43.884Z,17.20
2022-09-22T23:20:14.680Z,16.55
2022-09-22T23:22:45.677Z,19.73
2022-09-22T23:25:17.360Z,18.58
2022-09-22T23:27:51.062Z,19.17
2022-09-22T23:30:21.348Z,18.13
2022-09-22T23:32:51.982Z,17.30
2022-09-22T23:35:22.197Z,16.25
2022-09-22T23:37:53.387Z,18.40
2022-09-22T23:40:23.901Z,17.10
2022-09-22T23:42:54.461Z,17.20
2022-09-22T23:45:24.709Z,17.92
2022-09-22T23:47:55.322Z,16.73
2022-09-22T23:50:25.678Z,18.00
2022-09-22T23:52:55.917Z,15.23
2022-09-22T23:55:26.401Z,14.93
2022-09-22T23:57:56.643Z,15.00
